Time;durP1;ratioP1;P1;durP2;ratioP2;P2;SDS_P1;SDS_P2;PMS_P1;PMS_P2;Temp;Humidity;BMP_temperature;BMP_pressure;BME280_temperature;BME280_humidity;BME280_pressure;Samples;Min_cycle;Max_cycle;Signal;HPM_P1;HPM_P2
2022/06/12 00:01:12;;;;;;;2.45;2.10;;;;;;;17.79;58.30;97298.22;4875819;29;20058;-80
2022/06/12 00:03:43;;;;;;;2.53;2.05;;;;;;;17.78;58.38;97301.88;4874643;29;20057;-80
2022/06/12 00:06:11;;;;;;;2.47;2.05;;;;;;;17.75;58.48;97297.00;4873422;29;20492;-80
2022/06/12 00:08:40;;;;;;;3.38;2.72;;;;;;;17.71;58.59;97297.44;4874502;29;20085;-80
2022/06/12 00:11:17;;;;;;;7.55;3.00;;;;;;;17.66;58.77;97289.31;4874395;29;20089;-80
2022/06/12 00:13:50;;;;;;;2.50;2.08;;;;;;;17.66;58.74;97299.88;4874830;29;20136;-80
2022/06/12 00:16:19;;;;;;;4.07;2.25;;;;;;;17.65;58.67;97298.28;4874819;29;20062;-80
2022/06/12 00:18:49;;;;;;;5.18;1.70;;;;;;;17.62;58.84;97293.44;4874979;29;20524;-80
2022/06/12 00:21:18;;;;;;;2.45;2.22;;;;;;;17.59;58.97;97293.84;4874071;29;20475;-80
2022/06/12 00:23:49;;;;;;;2.50;1.95;;;;;;;17.55;59.10;97300.53;4872858;29;20050;-80
2022/06/12 00:26:20;;;;;;;4.43;2.20;;;;;;;17.53;59.42;97297.28;4872652;29;20073;-80
2022/06/12 00:28:48;;;;;;;4.38;2.45;;;;;;;17.48;59.25;97297.13;4872724;29;20245;-80
2022/06/12 00:31:16;;;;;;;3.95;2.38;;;;;;;17.46;59.48;97293.88;4873957;29;20057;-80
2022/06/12 00:33:43;;;;;;;2.00;1.80;;;;;;;17.42;59.56;97288.19;4885345;29;20081;-80
2022/06/12 00:36:12;;;;;;;3.50;2.47;;;;;;;17.40;59.50;97289.44;4873992;29;20069;-80
2022/06/12 00:38:40;;;;;;;2.50;1.95;;;;;;;17.36;59.74;97291.69;4883477;29;20052;-80
2022/06/12 00:41:08;;;;;;;2.78;2.58;;;;;;;17.34;59.80;97284.97;4874262;29;20109;-80
2022/06/12 00:43:37;;;;;;;2.83;2.30;;;;;;;17.29;59.98;97282.97;4873743;29;20058;-80
2022/06/12 00:46:06;;;;;;;2.97;2.05;;;;;;;17.24;60.10;97286.22;4869526;29;20141;-80
2022/06/12 00:48:37;;;;;;;3.90;2.35;;;;;;;17.20;60.37;97281.59;4870110;29;20053;-80
2022/06/12 00:51:09;;;;;;;3.08;2.63;;;;;;;17.16;60.53;97280.38;4870308;29;20069;-80
2022/06/12 00:53:42;;;;;;;;;;;;;;;17.16;60.07;97283.81;4871458;29;20084;-80
2022/06/12 00:56:14;;;;;;;4.10;2.30;;;;;;;17.09;60.57;97278.56;4871419;29;19924;-80
2022/06/12 00:58:45;;;;;;;3.50;2.58;;;;;;;17.05;60.59;97280.00;4871166;29;20556;-80
2022/06/12 01:01:18;;;;;;;3.35;2.72;;;;;;;17.02;61.10;97279.59;4870529;29;20338;-80
2022/06/12 01:06:35;;;;;;;3.72;2.30;;;;;;;16.94;60.93;97274.53;4869589;29;20405;-80
2022/06/12 01:09:11;;;;;;;2.58;2.30;;;;;;;16.92;61.29;97276.56;4870211;29;20077;-80
2022/06/12 01:11:41;;;;;;;2.30;1.98;;;;;;;16.89;61.16;97283.88;4868948;29;20500;-80
2022/06/12 01:14:11;;;;;;;6.70;2.30;;;;;;;16.89;61.30;97272.53;4867034;29;20049;-80
2022/06/12 01:16:45;;;;;;;3.45;2.67;;;;;;;16.91;60.92;97274.97;4869159;29;20088;-80
2022/06/12 01:19:22;;;;;;;3.05;2.35;;;;;;;16.87;61.27;97278.00;4869498;29;20136;-80
2022/06/12 01:22:34;;;;;;;3.03;1.88;;;;;;;16.83;61.40;97282.06;4868996;29;20120;-80
2022/06/12 01:25:21;;;;;;;9.45;2.80;;;;;;;16.75;61.54;97279.63;4880396;29;20050;-80
2022/06/12 01:28:09;;;;;;;3.00;2.42;;;;;;;16.72;61.66;97282.66;4876616;29;20065;-80
2022/06/12 01:30:45;;;;;;;4.13;2.30;;;;;;;16.69;61.80;97273.31;4869471;29;20089;-80
2022/06/12 01:33:20;;;;;;;3.17;2.88;;;;;;;16.68;61.92;97273.53;4869167;29;20141;-80
2022/06/12 01:35:57;;;;;;;2.28;2.10;;;;;;;16.67;61.75;97275.34;4869525;29;20054;-80
2022/06/12 01:38:32;;;;;;;2.67;2.20;;;;;;;16.68;61.88;97270.88;4868283;29;20092;-80
2022/06/12 01:41:04;;;;;;;2.25;2.05;;;;;;;16.66;62.12;97267.66;4866655;29;20678;-80
2022/06/12 01:43:40;;;;;;;2.88;2.20;;;;;;;16.64;61.91;97269.69;4870736;29;20064;-80
2022/06/12 01:46:16;;;;;;;3.20;2.75;;;;;;;16.60;62.03;97263.22;4867020;29;20064;-80
2022/06/12 01:48:55;;;;;;;3.25;2.40;;;;;;;16.58;62.21;97265.25;4867701;29;20435;-80
2022/06/12 01:51:31;;;;;;;6.68;2.58;;;;;;;16.54;62.37;97264.03;4867547;29;20124;-80
2022/06/12 01:54:04;;;;;;;4.32;2.17;;;;;;;16.50;62.20;97263.59;4882478;23;20119;-76
2022/06/12 01:56:37;;;;;;;2.75;2.33;;;;;;;16.47;62.18;97264.03;4860807;29;20524;-76
2022/06/12 01:59:10;;;;;;;2.40;2.17;;;;;;;16.45;62.30;97261.59;4860436;29;20590;-76
2022/06/12 02:01:43;;;;;;;2.40;2.20;;;;;;;16.44;62.39;97262.63;4860449;29;20049;-77
2022/06/12 02:04:18;;;;;;;3.92;2.13;;;;;;;16.44;62.57;97253.88;4860443;29;20093;-76
2022/06/12 02:06:53;;;;;;;3.28;2.13;;;;;;;16.42;62.52;97255.91;4863753;29;20489;-76
2022/06/12 02:09:26;;;;;;;3.00;2.20;;;;;;;16.40;62.78;97253.50;4864063;29;20088;-76
2022/06/12 02:14:49;;;;;;;2.50;2.28;;;;;;;16.36;62.79;97260.19;4863766;29;20049;-76
2022/06/12 02:17:25;;;;;;;3.97;2.10;;;;;;;16.34;62.65;97262.19;4863411;29;20049;-77
2022/06/12 02:19:54;;;;;;;3.50;2.50;;;;;;;16.31;62.72;97265.25;4863619;29;20049;-76
2022/06/12 02:22:27;;;;;;;2.78;2.38;;;;;;;16.29;62.97;97267.25;4863416;29;20140;-76
2022/06/12 02:24:59;;;;;;;2.55;2.00;;;;;;;16.30;63.07;97274.13;4864363;29;20477;-76
2022/06/12 02:27:33;;;;;;;2.72;2.25;;;;;;;16.34;63.04;97274.56;4863544;29;20113;-77
2022/06/12 02:30:06;;;;;;;5.20;2.03;;;;;;;16.34;62.68;97275.38;4868644;29;20105;-77
2022/06/12 02:32:42;;;;;;;2.75;2.35;;;;;;;16.31;63.10;97270.50;4882206;29;20060;-76
2022/06/12 02:35:13;;;;;;;2.50;2.30;;;;;;;16.25;62.91;97266.03;4880744;29;20065;-76
2022/06/12 02:37:46;;;;;;;4.55;2.42;;;;;;;16.22;63.15;97269.91;4865087;29;20084;-76
2022/06/12 02:40:20;;;;;;;3.33;3.03;;;;;;;16.16;63.39;97267.22;4863059;29;20053;-76
2022/06/12 02:42:50;;;;;;;5.28;3.15;;;;;;;16.10;63.40;97266.22;4863196;29;20053;-76
2022/06/12 02:45:23;;;;;;;2.78;2.50;;;;;;;16.07;63.42;97261.38;4863522;29;20093;-78
2022/06/12 02:47:53;;;;;;;2.60;2.40;;;;;;;16.06;63.50;97262.38;4862972;29;20132;-77
2022/06/12 02:50:24;;;;;;;4.43;2.47;;;;;;;16.05;63.45;97256.31;4862802;29;20141;-76
2022/06/12 02:53:06;;;;;;;3.08;2.70;;;;;;;16.09;63.66;97261.16;4863274;29;20049;-77
2022/06/12 02:55:44;;;;;;;2.30;2.10;;;;;;;16.08;63.46;97249.81;4863489;29;20057;-76
2022/06/12 02:58:19;;;;;;;3.28;2.50;;;;;;;16.10;63.50;97262.78;4863842;29;20065;-76
2022/06/12 03:00:51;;;;;;;3.75;2.70;;;;;;;16.10;63.64;97258.31;4869852;29;20117;-76
2022/06/12 03:03:27;;;;;;;2.17;2.05;;;;;;;16.11;63.76;97264.41;4879733;29;20077;-76
2022/06/12 03:05:58;;;;;;;3.72;2.13;;;;;;;16.11;63.52;97264.41;4879326;29;20077;-77
2022/06/12 03:08:29;;;;;;;2.70;2.50;;;;;;;16.10;63.36;97257.53;4866124;29;20050;-76
2022/06/12 03:11:01;;;;;;;4.22;2.50;;;;;;;16.08;63.29;97255.09;4863455;29;20057;-76
2022/06/12 03:13:31;;;;;;;2.42;2.13;;;;;;;16.08;63.40;97267.44;4862684;29;20109;-76
2022/06/12 03:16:02;;;;;;;2.95;2.65;;;;;;;16.09;63.24;97263.78;4862014;29;20053;-76
2022/06/12 03:18:35;;;;;;;4.60;2.40;;;;;;;16.08;63.15;97259.53;4863359;29;20058;-76
2022/06/12 03:21:17;;;;;;;3.90;2.60;;;;;;;16.06;63.24;97259.72;4866365;29;20117;-76
2022/06/12 03:24:02;;;;;;;4.00;2.38;;;;;;;16.05;63.35;97260.75;4864874;29;20061;-77
2022/06/12 03:26:40;;;;;;;2.38;2.00;;;;;;;16.04;63.64;97267.00;4864838;29;20062;-77
2022/06/12 03:29:16;;;;;;;1.98;1.88;;;;;;;16.04;63.74;97259.13;4864284;29;20073;-76
2022/06/12 03:31:51;;;;;;;3.63;2.28;;;;;;;16.06;63.59;97265.00;4864102;29;20053;-77
2022/06/12 03:34:31;;;;;;;2.88;2.10;;;;;;;16.08;63.54;97265.59;4864038;29;20064;-77
2022/06/12 03:37:06;;;;;;;2.45;2.00;;;;;;;16.09;63.50;97269.03;4864215;29;20140;-76
2022/06/12 03:39:43;;;;;;;2.38;2.00;;;;;;;16.06;63.47;97268.44;4863639;29;20089;-77
2022/06/12 03:42:19;;;;;;;2.75;2.40;;;;;;;16.08;63.42;97259.53;4863313;29;20054;-77
2022/06/12 03:44:56;;;;;;;3.28;2.10;;;;;;;16.08;63.35;97264.81;4862423;29;20423;-77
2022/06/12 03:47:32;;;;;;;3.45;2.50;;;;;;;16.06;63.37;97265.81;4862329;29;20491;-77
2022/06/12 03:50:10;;;;;;;4.40;2.40;;;;;;;16.04;63.60;97267.00;4862325;29;20106;-77
2022/06/12 03:52:43;;;;;;;2.63;2.42;;;;;;;16.01;63.80;97260.34;4862047;29;20148;-76
2022/06/12 03:55:15;;;;;;;2.63;2.35;;;;;;;16.00;63.56;97263.16;4862043;29;20057;-76
2022/06/12 03:57:53;;;;;;;3.55;2.30;;;;;;;16.00;63.55;97258.69;4862062;29;20046;-78
2022/06/12 04:00:25;;;;;;;3.75;2.63;;;;;;;16.00;63.91;97260.53;4861560;29;20049;-76
2022/06/12 04:02:57;;;;;;;4.07;2.53;;;;;;;16.00;63.67;97258.69;4861894;29;20179;-76
2022/06/12 04:05:29;;;;;;;;;;;;;;;16.03;63.54;97263.59;4862201;29;20059;-76
2022/06/12 04:08:00;;;;;;;2.78;2.35;;;;;;;16.01;63.62;97249.81;4861496;29;20010;-76
2022/06/12 04:10:32;;;;;;;2.95;2.65;;;;;;;16.02;63.77;97256.69;4861160;29;20057;-76
2022/06/12 04:13:00;;;;;;;5.07;2.47;;;;;;;16.05;63.88;97255.50;4861689;29;20065;-76
2022/06/12 04:15:32;;;;;;;2.28;2.10;;;;;;;16.12;63.95;97263.41;4861648;29;20461;-76
2022/06/12 04:18:01;;;;;;;3.10;2.40;;;;;;;16.15;63.57;97257.72;4861277;29;20540;-76
2022/06/12 04:20:46;;;;;;;2.80;2.45;;;;;;;16.16;64.04;97262.78;4861241;29;20061;-76
2022/06/12 04:23:26;;;;;;;3.97;2.90;;;;;;;16.17;63.39;97253.88;4861415;29;20051;-76
2022/06/12 04:25:56;;;;;;;3.53;2.35;;;;;;;16.16;63.64;97261.97;4861371;29;20057;-76
2022/06/12 04:28:30;;;;;;;3.58;2.20;;;;;;;16.13;63.65;97257.91;4860990;29;20049;-77
2022/06/12 04:30:59;;;;;;;2.40;2.20;;;;;;;16.13;63.63;97257.91;4861710;29;20061;-76
2022/06/12 04:33:45;;;;;;;3.63;2.25;;;;;;;16.12;63.91;97256.31;4874100;29;20050;-76
2022/06/12 04:36:14;;;;;;;2.72;2.53;;;;;;;16.11;63.92;97256.50;4875475;29;20053;-77
2022/06/12 04:38:42;;;;;;;2.30;2.10;;;;;;;16.11;64.01;97251.25;4864973;29;20101;-76
2022/06/12 04:41:12;;;;;;;2.63;2.10;;;;;;;16.12;64.04;97255.50;4861177;29;20057;-77
2022/06/12 04:43:40;;;;;;;2.28;2.03;;;;;;;16.13;63.89;97254.47;4861179;29;20136;-76
2022/06/12 04:46:08;;;;;;;3.35;2.80;;;;;;;16.17;64.63;97260.97;4861114;29;20049;-75
2022/06/12 04:48:41;;;;;;;2.90;2.60;;;;;;;16.21;64.46;97264.81;4860695;29;20053;-76
2022/06/12 04:51:10;;;;;;;3.00;2.67;;;;;;;16.23;64.12;97266.25;4860619;29;20096;-76
2022/06/12 04:53:41;;;;;;;4.25;2.55;;;;;;;16.25;64.16;97269.47;4860777;29;20081;-76
2022/06/12 04:56:09;;;;;;;2.90;2.03;;;;;;;16.29;64.24;97259.38;4861052;29;20053;-76
2022/06/12 04:58:38;;;;;;;2.92;2.60;;;;;;;16.33;63.92;97276.34;4860802;29;20046;-76
2022/06/12 05:01:06;;;;;;;2.38;2.20;;;;;;;16.37;64.14;97269.69;4860419;29;20053;-76
2022/06/12 05:03:34;;;;;;;3.72;2.45;;;;;;;16.43;64.15;97279.41;4860701;29;20061;-76
2022/06/12 05:06:02;;;;;;;2.95;2.60;;;;;;;16.50;63.94;97270.72;4860533;29;20089;-77
2022/06/12 05:08:31;;;;;;;3.45;2.53;;;;;;;16.54;64.09;97267.47;4860645;29;20160;-76
2022/06/12 05:11:01;;;;;;;2.90;2.63;;;;;;;16.58;63.77;97273.94;4860502;29;20054;-77
2022/06/12 05:13:28;;;;;;;4.13;2.55;;;;;;;16.63;63.91;97265.44;4860490;29;20080;-76
2022/06/12 05:15:56;;;;;;;3.35;2.20;;;;;;;16.67;63.94;97267.44;4860524;29;20102;-76
2022/06/12 05:18:24;;;;;;;3.03;2.38;;;;;;;16.73;64.07;97272.94;4860293;29;20057;-76
2022/06/12 05:20:52;;;;;;;2.25;2.15;;;;;;;16.78;64.04;97268.66;4860341;29;20530;-77
2022/06/12 05:23:20;;;;;;;2.42;1.95;;;;;;;16.84;64.08;97265.25;4860422;29;20144;-76
2022/06/12 05:25:48;;;;;;;4.53;2.40;;;;;;;16.89;63.58;97268.06;4860470;29;20092;-77
2022/06/12 05:28:19;;;;;;;2.38;2.10;;;;;;;16.94;64.08;97264.00;4860345;29;20500;-77
2022/06/12 05:30:47;;;;;;;3.53;3.08;;;;;;;16.97;63.82;97259.16;4859888;29;20069;-76
2022/06/12 05:33:14;;;;;;;3.30;2.88;;;;;;;17.02;64.01;97261.97;4860024;29;20057;-76
2022/06/12 05:35:43;;;;;;;3.42;2.63;;;;;;;17.06;64.01;97262.38;4870035;29;20063;-76
2022/06/12 05:38:11;;;;;;;3.92;2.50;;;;;;;17.12;63.87;97266.81;4878780;29;20139;-76
2022/06/12 05:40:41;;;;;;;2.75;2.22;;;;;;;17.18;63.80;97265.97;4877311;29;20052;-77
2022/06/12 05:43:09;;;;;;;3.15;2.15;;;;;;;17.23;63.92;97268.81;4861595;29;20132;-76
2022/06/12 05:45:38;;;;;;;6.75;2.72;;;;;;;17.28;63.83;97266.34;4859992;29;20132;-77
2022/06/12 05:48:09;;;;;;;5.50;2.05;;;;;;;17.36;64.10;97267.97;4859597;29;20132;-76
2022/06/12 05:50:46;;;;;;;3.20;2.58;;;;;;;17.42;63.92;97267.09;4860346;29;20053;-76
2022/06/12 05:53:14;;;;;;;4.50;2.47;;;;;;;17.49;63.83;97256.53;4870827;29;20064;-76
2022/06/12 05:55:44;;;;;;;3.35;2.45;;;;;;;17.57;63.63;97260.78;4878750;29;20140;-76
2022/06/12 05:58:12;;;;;;;4.53;2.75;;;;;;;17.62;63.45;97261.78;4866719;29;20056;-77
2022/06/12 06:00:42;;;;;;;4.28;2.65;;;;;;;17.70;63.56;97258.06;4860350;29;20058;-77
2022/06/12 06:03:10;;;;;;;2.80;2.45;;;;;;;17.77;63.63;97258.03;4861439;29;20053;-77
2022/06/12 06:05:39;;;;;;;4.13;2.05;;;;;;;17.83;63.34;97260.66;4860116;29;20060;-78
2022/06/12 06:08:08;;;;;;;3.10;2.15;;;;;;;17.92;62.91;97258.59;4873710;29;20077;-79
2022/06/12 06:10:37;;;;;;;2.47;2.17;;;;;;;18.00;62.92;97262.81;4896145;29;20059;-78
2022/06/12 06:13:05;;;;;;;3.28;2.15;;;;;;;18.07;63.03;97264.38;4889814;29;20077;-78
2022/06/12 06:15:33;;;;;;;3.17;2.08;;;;;;;18.15;63.00;97259.84;4871545;29;20061;-78
2022/06/12 06:18:02;;;;;;;2.55;2.38;;;;;;;18.22;62.92;97260.63;4874381;29;20045;-78
2022/06/12 06:20:33;;;;;;;2.45;2.20;;;;;;;18.31;63.07;97259.34;4880333;29;20112;-77
2022/06/12 06:23:00;;;;;;;2.67;2.20;;;;;;;18.41;62.52;97256.22;4878972;29;20055;-77
2022/06/12 06:25:31;;;;;;;3.30;2.00;;;;;;;18.49;62.69;97264.69;4880194;29;20097;-78
2022/06/12 06:27:59;;;;;;;3.40;2.38;;;;;;;18.59;62.44;97260.75;4878841;29;20076;-78
2022/06/12 06:30:28;;;;;;;3.70;1.98;;;;;;;18.68;62.49;97270.03;4876760;29;20121;-77
2022/06/12 06:32:57;;;;;;;2.75;2.25;;;;;;;18.78;62.66;97269.56;4865499;29;20093;-79
2022/06/12 06:35:26;;;;;;;5.60;2.13;;;;;;;18.87;62.21;97263.78;4860440;29;20109;-78
2022/06/12 06:37:54;;;;;;;1.92;1.83;;;;;;;18.94;62.08;97269.81;4869268;29;20076;-78
2022/06/12 06:40:26;;;;;;;2.20;2.10;;;;;;;19.04;61.38;97273.78;4878790;29;20124;-78
2022/06/12 06:42:54;;;;;;;4.90;2.03;;;;;;;19.13;60.84;97273.28;4868464;29;20512;-77
2022/06/12 06:48:13;;;;;;;3.20;2.20;;;;;;;19.33;60.40;97273.06;4870856;29;20069;-80
2022/06/12 06:50:44;;;;;;;4.00;2.13;;;;;;;19.42;60.30;97259.53;4901283;29;20117;-82
2022/06/12 06:53:12;;;;;;;4.25;2.33;;;;;;;19.54;59.23;97273.63;4902712;29;20041;-81
2022/06/12 06:55:41;;;;;;;3.15;2.40;;;;;;;19.64;58.68;97258.03;4890025;29;20053;-80
2022/06/12 06:58:11;;;;;;;5.32;2.67;;;;;;;19.75;57.72;97265.25;4882798;29;20135;-80
2022/06/12 07:00:41;;;;;;;3.25;2.38;;;;;;;19.86;56.09;97265.53;4884527;29;20408;-79
2022/06/12 07:03:10;;;;;;;2.55;2.10;;;;;;;19.97;55.66;97264.75;4880761;29;20519;-78
2022/06/12 07:05:38;;;;;;;2.83;2.05;;;;;;;20.07;55.71;97262.38;4879761;29;20085;-78
2022/06/12 07:08:08;;;;;;;3.30;1.88;;;;;;;20.19;55.78;97269.53;4875945;29;20084;-78
2022/06/12 07:10:39;;;;;;;3.47;2.20;;;;;;;20.30;55.57;97274.06;4881915;29;20049;-81
2022/06/12 07:13:08;;;;;;;3.92;2.95;;;;;;;20.41;56.28;97267.16;4863113;29;20057;-78
2022/06/12 07:15:36;;;;;;;6.60;4.55;;;;;;;20.52;56.22;97261.88;4862997;29;20064;-81
2022/06/12 07:18:05;;;;;;;2.53;2.20;;;;;;;20.64;55.43;97261.09;4865028;29;20098;-81
2022/06/12 07:20:36;;;;;;;3.92;1.95;;;;;;;20.79;55.56;97274.72;4882498;29;20131;-81
2022/06/12 07:23:04;;;;;;;2.67;2.00;;;;;;;20.92;55.44;97269.16;4882179;29;20061;-82
2022/06/12 07:25:39;;;;;;;3.92;2.75;;;;;;;21.06;54.76;97263.66;4882519;29;20555;-82
2022/06/12 07:28:07;;;;;;;1.98;1.77;;;;;;;21.17;54.51;97254.88;4882480;29;20056;-82
2022/06/12 07:30:37;;;;;;;2.22;2.03;;;;;;;21.29;54.67;97266.25;4882265;29;20521;-82
2022/06/12 07:33:05;;;;;;;7.18;3.00;;;;;;;21.43;54.16;97258.88;4882191;29;20139;-81
2022/06/12 07:35:33;;;;;;;4.80;2.97;;;;;;;21.54;53.93;97259.91;4882217;29;20571;-81
2022/06/12 07:38:01;;;;;;;2.67;2.22;;;;;;;21.65;53.91;97267.00;4874262;29;20046;-81
2022/06/12 07:40:39;;;;;;;2.45;1.85;;;;;;;21.76;53.69;97258.19;4863452;29;20081;-82
2022/06/12 07:43:08;;;;;;;2.95;1.77;;;;;;;21.88;54.23;97254.69;4864073;29;20136;-82
2022/06/12 07:45:36;;;;;;;3.03;2.08;;;;;;;22.01;54.05;97259.69;4863842;29;20081;-81
2022/06/12 07:48:05;;;;;;;4.45;2.10;;;;;;;22.11;53.13;97259.88;4863559;29;20140;-82
2022/06/12 07:50:33;;;;;;;1.88;1.77;;;;;;;22.21;52.85;97256.59;4863268;29;20088;-81
2022/06/12 07:53:00;;;;;;;2.05;1.90;;;;;;;22.31;52.82;97253.34;4873018;29;20089;-76
2022/06/12 08:06:19;;;;;;;4.28;1.45;;;;;;;22.87;48.51;97256.84;3030457;23;20049;-80
2022/06/12 08:15:02;;;;;;;2.13;1.50;;;;;;;23.24;47.12;97250.97;4885348;29;20054;-80
2022/06/12 08:18:04;;;;;;;1.88;1.60;;;;;;;23.38;48.09;97246.91;4885242;29;20038;-79
2022/06/12 08:21:02;;;;;;;1.98;1.45;;;;;;;23.51;45.36;97244.94;4885821;29;20041;-79
2022/06/12 08:27:09;;;;;;;2.65;1.50;;;;;;;23.74;44.60;97239.31;4886105;29;20064;-80
2022/06/12 08:30:02;;;;;;;2.47;1.50;;;;;;;23.85;43.75;97240.25;4885566;29;20037;-79
2022/06/12 08:32:51;;;;;;;2.75;1.15;;;;;;;23.98;43.20;97228.38;4878875;29;20053;-79
2022/06/12 08:42:47;;;;;;;1.60;1.27;;;;;;;24.35;43.83;97235.63;4903182;29;20040;-79
2022/06/12 08:48:34;;;;;;;1.20;1.20;;;;;;;24.55;42.63;97230.47;4866454;29;20060;-79
2022/06/12 08:51:22;;;;;;;2.22;1.15;;;;;;;24.66;42.11;97226.84;4850979;29;20049;-79
2022/06/12 08:54:13;;;;;;;1.38;1.15;;;;;;;24.81;42.18;97227.97;4867126;29;20068;-80
2022/06/12 08:59:27;;;;;;;1.38;1.30;;;;;;;24.99;41.04;97227.56;4899586;23;20041;-81
2022/06/12 09:02:07;;;;;;;2.63;1.40;;;;;;;25.11;41.00;97223.88;4885698;29;20037;-81
2022/06/12 10:07:06;;;;;;;4.63;1.70;;;;;;;26.57;37.68;97172.88;4821911;23;20486;-76
2022/06/12 10:09:38;;;;;;;4.15;1.90;;;;;;;26.61;37.43;97178.47;4860737;29;20060;-76
2022/06/12 10:12:11;;;;;;;2.22;1.55;;;;;;;26.62;38.64;97172.06;4849810;29;20057;-75
2022/06/12 10:14:43;;;;;;;3.85;1.92;;;;;;;26.61;39.25;97171.25;4852669;29;20060;-75
2022/06/12 10:17:16;;;;;;;2.63;1.50;;;;;;;26.61;37.24;97170.44;4859732;29;20058;-75
2022/06/12 10:19:48;;;;;;;4.20;1.65;;;;;;;26.60;36.64;97174.19;4842261;29;20058;-75
2022/06/12 10:22:23;;;;;;;2.13;1.50;;;;;;;26.59;36.85;97165.38;4843294;29;20050;-79
2022/06/12 10:24:53;;;;;;;3.58;1.58;;;;;;;26.60;35.98;97163.50;4841733;29;20062;-79
2022/06/12 10:27:21;;;;;;;3.47;1.65;;;;;;;26.60;36.11;97156.25;4834326;29;20062;-78
2022/06/12 10:29:53;;;;;;;3.67;1.58;;;;;;;26.62;36.57;97151.44;4843474;29;20167;-78
2022/06/12 10:32:26;;;;;;;2.22;1.58;;;;;;;26.67;37.82;97158.66;4853222;29;20053;-78
2022/06/12 10:56:42;;;;;;;5.68;1.63;;;;;;;27.01;35.65;97136.59;5575366;23;20069;-80
2022/06/12 11:13:11;;;;;;;4.75;1.52;;;;;;;27.24;35.86;97129.81;5353872;23;20053;-80
2022/06/12 11:16:15;;;;;;;2.95;1.63;;;;;;;27.27;34.77;97123.91;4886875;29;20033;-80
2022/06/12 11:19:11;;;;;;;2.08;1.55;;;;;;;27.33;36.33;97117.44;4885911;29;20073;-80
2022/06/12 11:22:00;;;;;;;2.05;1.50;;;;;;;27.36;34.11;97110.75;4901037;29;20043;-79
2022/06/12 11:24:46;;;;;;;1.50;1.30;;;;;;;27.33;34.05;97117.44;4867218;29;20038;-80
2022/06/12 11:27:39;;;;;;;3.05;1.25;;;;;;;27.35;34.68;97115.28;4867384;29;20050;-80
2022/06/12 11:30:39;;;;;;;3.13;1.58;;;;;;;27.41;34.44;97114.16;4873283;29;20041;-81
2022/06/12 11:33:51;;;;;;;2.00;1.00;;;;;;;27.44;34.38;97110.97;4885768;29;20056;-81
2022/06/12 11:36:36;;;;;;;1.63;0.90;;;;;;;27.46;32.94;97102.63;4873271;29;20120;-83
2022/06/12 11:39:43;;;;;;;2.03;1.13;;;;;;;27.50;33.26;97117.84;4889382;29;20068;-83
2022/06/12 11:42:42;;;;;;;8.32;1.88;;;;;;;27.54;32.88;97112.75;4904493;29;20063;-83
2022/06/12 11:45:56;;;;;;;1.20;1.10;;;;;;;27.59;32.81;97099.31;4883431;29;20086;-83
2022/06/12 11:48:46;;;;;;;1.27;1.00;;;;;;;27.66;32.88;97094.44;4883030;29;20080;-83
2022/06/12 11:54:48;;;;;;;2.55;1.13;;;;;;;27.81;32.19;97101.56;4873845;29;20121;-83
2022/06/12 11:57:23;;;;;;;1.15;0.98;;;;;;;27.86;31.73;97104.25;4862328;29;20088;-83
2022/06/12 12:00:12;;;;;;;3.20;1.27;;;;;;;27.89;31.13;97092.94;4885286;29;20049;-83
2022/06/12 12:02:58;;;;;;;1.45;1.00;;;;;;;27.94;31.59;97094.78;4878775;29;20085;-83
2022/06/12 12:19:40;;;;;;;1.38;1.20;;;;;;;28.10;31.11;97076.69;4880437;29;20088;-81
2022/06/12 13:58:42;;;;;;;9.50;5.93;;;;;;;28.05;30.71;96966.78;6273634;22;20022;-77
2022/06/12 14:01:17;;;;;;;27.10;19.30;;;;;;;28.04;30.04;96965.97;6284714;22;20098;-76
2022/06/12 14:03:47;;;;;;;16.17;13.00;;;;;;;28.04;30.13;96973.22;6285311;22;20026;-76
2022/06/12 14:06:17;;;;;;;8.23;5.78;;;;;;;28.04;29.29;96965.19;6295156;22;20024;-79
2022/06/12 14:08:45;;;;;;;2.50;1.70;;;;;;;28.05;29.22;96966.78;6278801;22;20024;-79
2022/06/12 14:11:28;;;;;;;1.52;1.20;;;;;;;28.10;29.07;96964.06;6271143;23;20443;-77
2022/06/12 14:13:58;;;;;;;1.50;1.27;;;;;;;28.13;29.34;96955.41;6255281;23;20027;-78
2022/06/12 14:16:32;;;;;;;1.65;1.05;;;;;;;28.19;28.99;96946.22;6253458;23;20012;-78
2022/06/12 14:19:02;;;;;;;2.72;1.35;;;;;;;28.24;29.28;96958.78;6253431;23;20026;-78
2022/06/12 14:21:34;;;;;;;2.63;1.20;;;;;;;28.27;28.94;96948.28;6253071;23;20024;-78
2022/06/12 14:24:04;;;;;;;1.20;0.95;;;;;;;28.29;29.90;96956.81;6253517;23;20016;-78
2022/06/12 14:26:36;;;;;;;2.83;1.73;;;;;;;28.31;29.37;96954.66;6247025;23;20099;-79
2022/06/12 14:29:30;;;;;;;13.15;8.98;;;;;;;28.32;29.46;96944.75;6245899;23;20031;-77
2022/06/12 14:32:06;;;;;;;2.60;2.08;;;;;;;28.30;28.37;96952.28;6246311;23;20095;-78
2022/06/12 14:34:40;;;;;;;2.95;2.60;;;;;;;28.26;29.57;96945.88;6246266;23;20026;-78
2022/06/12 14:37:25;;;;;;;2.65;2.40;;;;;;;28.25;29.49;96946.94;6246420;22;20027;-79
2022/06/12 14:39:52;;;;;;;2.25;2.00;;;;;;;28.21;29.66;96941.38;6272285;23;20024;-79
2022/06/12 14:42:21;;;;;;;1.90;1.70;;;;;;;28.17;29.94;96943.03;6265512;22;20077;-78
2022/06/12 14:44:50;;;;;;;1.88;1.65;;;;;;;28.15;29.50;96945.22;6250287;23;20095;-79
2022/06/12 14:47:21;;;;;;;2.47;1.30;;;;;;;28.18;30.31;96949.19;6248182;22;20055;-79
2022/06/12 14:49:51;;;;;;;14.95;5.65;;;;;;;28.20;30.00;96939.78;6246923;23;20100;-79
2022/06/12 14:52:22;;;;;;;4.88;3.40;;;;;;;28.23;30.27;96935.72;6246623;23;20489;-78
2022/06/12 14:54:50;;;;;;;2.63;1.45;;;;;;;28.25;30.67;96929.00;6246697;23;20055;-78
2022/06/12 14:57:18;;;;;;;1.80;1.70;;;;;;;28.27;30.40;96929.50;6246037;22;20120;-78
2022/06/12 14:59:46;;;;;;;1.52;1.40;;;;;;;28.25;30.11;96929.00;6246204;23;20024;-78
2022/06/12 15:02:18;;;;;;;3.45;1.48;;;;;;;28.23;30.29;96920.44;6245944;23;20087;-79
2022/06/12 15:04:47;;;;;;;1.52;1.42;;;;;;;28.22;30.91;96913.47;6252484;23;20024;-79
2022/06/12 15:07:15;;;;;;;3.80;1.52;;;;;;;28.24;31.42;96915.88;6252121;22;20020;-80
2022/06/12 15:09:43;;;;;;;1.98;1.60;;;;;;;28.25;31.08;96902.16;6245668;23;20063;-80
2022/06/12 15:12:13;;;;;;;2.67;1.35;;;;;;;28.26;31.38;96905.66;6245768;23;20392;-80
2022/06/12 15:14:40;;;;;;;4.80;1.88;;;;;;;28.26;31.80;96898.38;6245927;23;20074;-78
2022/06/12 15:17:12;;;;;;;2.83;1.50;;;;;;;28.24;30.94;96889.03;6246236;22;20352;-78
2022/06/12 15:19:48;;;;;;;2.53;1.63;;;;;;;28.20;31.02;96894.16;6246509;23;20024;-79
2022/06/12 15:22:18;;;;;;;1.75;1.63;;;;;;;28.18;31.12;96896.34;6245093;23;20016;-79
2022/06/12 15:24:47;;;;;;;1.33;1.30;;;;;;;28.15;30.65;96887.00;6246012;23;20032;-78
2022/06/12 15:30:01;;;;;;;1.40;1.30;;;;;;;28.11;31.44;96879.81;6245163;23;20023;-78
2022/06/12 15:32:33;;;;;;;3.42;1.45;;;;;;;28.08;31.34;96875.03;6245844;23;20020;-78
2022/06/12 15:35:05;;;;;;;2.83;1.40;;;;;;;28.03;31.56;96883.13;6245533;23;20070;-78
2022/06/12 15:37:33;;;;;;;3.00;1.33;;;;;;;28.00;31.44;96879.16;6245636;22;20024;-79
2022/06/12 15:40:00;;;;;;;2.22;1.63;;;;;;;27.96;31.71;96883.47;6245527;23;20066;-78
2022/06/12 15:42:29;;;;;;;3.00;2.00;;;;;;;27.93;31.60;96874.13;6245391;23;20028;-81
2022/06/12 15:44:56;;;;;;;2.45;1.70;;;;;;;27.92;32.05;96869.88;6246011;23;20020;-78
2022/06/12 15:47:24;;;;;;;3.03;1.70;;;;;;;27.93;31.46;96871.44;6246025;22;20086;-78
2022/06/12 15:49:51;;;;;;;2.03;1.30;;;;;;;27.94;31.66;96874.91;6244570;23;20016;-78
2022/06/12 15:52:24;;;;;;;1.23;1.20;;;;;;;27.94;32.31;96873.06;6245340;23;20028;-78
2022/06/12 15:54:51;;;;;;;3.00;1.20;;;;;;;27.95;32.08;96871.16;6245431;23;20095;-77
2022/06/12 15:57:19;;;;;;;5.15;1.80;;;;;;;27.96;32.47;96861.25;6245566;22;20103;-78
2022/06/12 15:59:46;;;;;;;2.83;1.73;;;;;;;27.97;31.77;96873.53;6244555;23;20090;-77
2022/06/12 16:02:20;;;;;;;3.85;2.53;;;;;;;27.93;31.58;96866.09;6245327;23;20024;-78
2022/06/12 16:04:49;;;;;;;4.10;3.38;;;;;;;27.91;31.86;96860.22;6245394;23;20020;-78
2022/06/12 16:07:18;;;;;;;3.08;2.00;;;;;;;27.89;32.01;96848.97;6244748;22;20329;-77
2022/06/12 16:09:48;;;;;;;3.13;2.20;;;;;;;27.89;32.37;96850.88;6245237;23;20099;-77
2022/06/12 16:12:17;;;;;;;7.15;4.43;;;;;;;27.88;32.82;96858.13;6244614;23;20020;-79
2022/06/12 16:14:44;;;;;;;6.97;2.33;;;;;;;27.88;32.82;96850.06;6245325;23;20016;-77
2022/06/12 16:17:12;;;;;;;4.45;3.17;;;;;;;27.85;32.33;96850.63;6244712;22;20111;-78
2022/06/12 16:19:40;;;;;;;3.65;2.55;;;;;;;27.86;33.17;96846.88;6244778;23;20062;-77